SMRA00 UAOL 152100
AAXX 15211
01001 46/// /0706 10089 20075 30025 40036 57004=
01002 46/// /1202 10063 20036 30079 40087 52005=
01003 41482 73005 10058 20026 30095 40109 52004 70322 875//=
01006 46/// /0000 10013 20012 30088 40103 54003=
01007 46/// /0601 10046 20031 30100 40109 52006=
01008 41383 62505 10055 20037 30073 40108 53003 71562 86500=
01009 46/// /1802 10036 2//// 30090 40097 54003=
01010 26/// /1702 10097 20075 30060 40076 57004 333 60005=
01011 46/// /3101 10013 20004 30086 40096 54003=
01013 26/// /2802 10051 2//// 30097 40109 52003 333 69935=
01015 46/// /1607 1//// 2////=
01016 46/// /1802 10003 20000 30080 40095 54002=
01017 46/// /2403 10046 20040 30105 40113 52003=
01023 21789 33001 10068 20062 39995 40089 54001 70300 81431 333 60005=
01024 46/// /0000 10065 20010 30087 40100 54003=
01025 47/84 00503 10100 20064 30081 40093 54001 700//=
01026 21688 20402 10081 20057 39953 40092 54001 70200 81508 333 60005=
01027 26/// ///// 10086 20064 333 60005=
01028 41440 82005 10061 20050 30117 40137 53004 75252 875//=
01035 46/// ///// 10090 2////=
01036 26/// /2304 10081 2//// 39272 40081 58002 333 60005=
01037 46/// /0501 10079 20065 30076 40100 54000=
01042 46/// /1310 10094 20054=
01043 46/// /1405 10126 2////=
01044 46/// /0905 10125 20076 30094 40102 57001=
01046 46/// /1802 10121 20074 30090 40096 57001=
01049 26/// /1503 10115 20082 30111 40114 52001 333 60005=
01052 26/// /2102 10112 20057 30011 40107 54000 333 60005=
01055 46/// /0707 10088 20070 30100 40117 57001=
01058 26/// /1403 10094 20067 39666 40115 54001 333 60005=
01059 46/// /2002 10067 20061 30115 40124 54000=
01062 41380 72608 10049 20035 30091 40104 53002 70222 8667/=
01064 46/// /1506 10072 20069 39430 40127 52002=
01065 26/// /0602 10090 20078 39971 40130 52003 333 60005=
01074 46/// /1502 10039 20028 30119 40134 54000=
01076 26/// /0000 10041 20029 30102 40142 52006 333 60005=
01078 46/// /1206 10078 20053 30126 40136 54001=
01082 26/// ///// 10048 20041 30077 40145 52003 333 60005=
01083 46/// /1104 10067 20045 30123 40139 52001=
01084 26/// /0000 10035 20033 333 60005=
01086 46/// /2302 10056 20041 39960 40143 52002=
01088 46/// /3602 10049 20045 30096 40144 52004=
01089 46/// /1403 10068 20048 30041 40146 52004=
01091 26/// /0602 10113 20040 333 60005=
01098 26/// /2701 10055 20046 30125 40143 52002 333 60005=
01099 46/// /1701 10064 20045 30131 40146 52002=
01105 46/// /0606 10141 20091=
01107 46/// /1303 10121 20108 30053 40057 57001=
01112 46/// /0602 10144 20131 30059 40068 58002=
01115 21465 81205 10133 20115 30043 40063 57004 72162 885// 333 60005=
01116 46/// /1705 10159 20115 30046 40067 57002=
01121 46/// /1802 10138 20115 30056 40068 57005=
01122 26/// /2401 10130 20121 39987 40074 52001 333 60005=
01124 26/// ///// 10146 20110 333 60005=
01132 26/// /1501 10124 20113 39705 40080 54001 333 60005=
01133 46/// /1602 10139 20130=
01135 26/// /1601 10122 20117 39928 40075 52001 333 60005=
01136 46/// /1203 10136 20110=
01139 46/// /1802 10125 20105 30065 40070 54001=
01141 26/// /1503 10140 20102 30039 40069 55000 333 60005=
01143 46/// /2201 10135 20086=
01144 46/// /3502 10128 20115=
01146 26/// /2201 10122 20114 333 60005=
01147 26/// /2301 10121 20105 333 60005=
01148 46/// /1001 10124 20119=
01151 46/// /2401 10126 20118 39994 40077 50004=
01152 41683 81501 10141 20116 30055 40070 50001 78082 8687/=
01158 26/// ///// 10127 20113 30068 40077 50004 333 69925=
01161 46/// /1004 10153 20081 30060 40071 57001=
01162 46/// /0603 10138 20107 30064 40068 57004=
01167 41587 63403 10128 20105 30067 40073 58003 70322 85578=
01169 26/// ///// 10122 20117 30033 40077 50004 333 69915=
01180 46/// /2701 10117 20080 30019 40075 57003=
01183 46/// /3601 10110 20094 30044 40075 54000=
01192 26/// /1702 10135 20054 333 60005=
01198 26/// ///// 10083 20066 39853 40099 52002 333 60005=
01199 46/// /1604 10097 20066 39669 40123 54001=
01203 46/// /1706 10162 20147 39972 40019 56023=
01205 46/// /1306 10152 20139 39970 40014 58028=
01209 46/// /0101 10140 20126 39942 40029 58022=
01210 46/// /1102 10148 20138 30007 40032 57019=
01212 46/// /1005 10146 20128 30020 40037 55018=
01214 46/// /0903 10145 20118=
01217 46/// /0203 10152 20132 30034 40038 56016=
01218 26/// /2003 10202 20085 30015 40035 56018 333 60005=
01220 46/// /1408 10095 20060=
01221 46/// ///// 10129 20086=
01223 46/// /0504 10141 20123 39967 40041 58019=
01224 26/// ///// 10148 20133 333 69955=
01225 46/// /1103 10143 20133 30039 40044 58017=
01227 26/// ///// 10138 20094 333 60005=
01229 46/// /1406 10133 2////=
01230 26/// /1402 10143 20103 333 60005=
01232 26/// /3302 10137 20124 39960 40037 58019 333 60005=
01233 46/// /1604 10135 20097=
01234 46/// /2101 10138 20124=
01237 26/// /0502 10133 20119 30034 40049 58007 333 60005=
01238 41364 71709 10115 2//// 38965 40111 58007 70122 83647=
01239 26/// /1501 10111 20080 333 60005=
01241 41486 73202 10137 20124 30044 40055 58002 70222 8167/=
01242 46/// ///// 10147 20122=
01245 26/// /2903 10154 20089 39380 40052 58007 333 60005=
01250 46/// ///// 10131 20091=
01253 26/// /2302 10145 20113 333 60005=
01254 26/// /3001 10142 20124 333 60005=
01257 26/// /2201 10146 20125 39898 40053 57006 333 60005=
01259 46/// /1002 10168 20102 30032 40054 58007=
01265 26/// /1605 10142 20102 39520 40077 58006 333 60005=
01270 26/// ///// 10168 20116 333 60005=
01271 27984 51103 10175 20114 30036 40056 57005 700// 333 60005=
01272 26/// ///// 10161 20123 333 60005=
01273 46/// /1704 10174 20103 39873 40060 55004=
01277 46/// /0902 10150 20127=
01281 46/// /0502 10126 20115 39908 40077 58003=
01282 46/// /0602 10144 20128 30056 40061 58008=
01287 46/// ///// 10119 20111=
01288 46/// /1504 10139 20099 39363 40080 50001=
01290 46/// /0401 10153 20124 30060 40063 58007=
01291 26/// /0601 10121 20119 333 60005=
01293 46/// /1402 10159 20113 39867 40066 57005=
01300 41397 72607 10136 20123 40016 52005 71562 8772/ 22200 02131 10502 70012=
01304 46/// /1812 10165 20152 39991 40021 56019=
01307 46/// /1913 10166 20153 30015 40037 55010=
01308 26/// ///// 10163 20150 333 60045=
01310 46/// /1607 10146 20135 30017 40030 56016=
01311 47429 82009 10164 20156 39997 40057 55005 782//=
01314 26/// /1706 10168 20141 333 60015=
01315 26/// /0903 10148 20142 333 69965=
01317 21458 81607 10166 20152 30014 40057 55005 75865 887// 333 60025=
01319 26/// ///// 10155 20142 333 60065=
01320 46/// /1602 10146 20146 39963 40034 58018=
01321 46/// /0000 10129 20127 39794 40038 58019=
01323 46/// /2002 10131 20123 39668 40040 58017=
01326 26/// ///// 10139 20136 333 60015=
01327 26/// /1303 10136 20133 39536 40065 56009 333 60025=
01332 26/// /3101 10133 2//// 333 69995=
01336 26/// ///// 10134 20129 333 69955=
01337 46/// /0000 10157 20132 30000 40064 55008=
01338 46/// /0702 10146 20135 39994 40058 58015=
01342 26/// ///// 10154 20133 333 69925=
01344 26/// ///// 10128 20100 333 69925=
01345 26/// /1703 10115 20096 333 69955=
01346 26/// /1108 10108 20077 333 69915=
01347 46/// /0701 10128 20128 39486 40062 58012=
01350 26/// /1504 10095 20073 38725 40076 58006 333 69965=
01352 46/// /1708 10096 20095=
01355 26/// ///// 10138 20124 30055 40060 58013 333 69915=
01357 46/// /0905 10116 20114 39168 40085 57005=
01358 46/// ///// 10126 20120 39387 40083 57003=
01359 46/// /1401 10133 20103 39205 40082 57004=
01360 41570 71003 10121 20108 78082 879//=
01361 26/// /0803 10123 20071 39069 40053 57009 333 60005=
01362 46/// /1910 10062 20040 38019 40052 58013=
01363 46/// /1502 10135 20096 39178 40082 57003=
01364 26/// /3301 10111 20099 38998 40077 57005 333 69925=
01365 26/// /1404 10108 20099 333 60005=
01366 26/// /1506 10081 20069 38508 40068 57011 333 69945=
01367 46/// /0601 10158 20114 39660 40083 58003=
01368 46/// /1605 10127 20099 39154 40087 57003=
01370 26/// /1702 10117 20094 39028 40076 58004 333 60005=
01371 26/// ///// 10134 20130 333 60005=
01373 26/// /1102 10177 20117 39888 40083 58003 333 60005=
01374 26/// /1602 10136 20123 333 60005=
01375 46/// /1708 10098 20097=
01376 46/// /0703 10168 20138=
01378 46/// /1303 10165 20114 39808 40087 57005=
01380 46/// /1603 10105 20097=
01381 26/// ///// 10159 20124 333 60005=
01382 26/// ///// 10171 20131 333 60005=
01383 46/// /1403 10140 20122 39799 40101 57005=
01384 41485 71703 10163 20134 53002 70222 8455/=
01385 26/// /1503 10166 20124 39843 40103 57002 333 60005=
01386 26/// ///// 10174 20118 333 60005=
01387 26/// ///// 10156 20118 333 60005=
01389 26/// /1802 10135 20107 39811 40111 57002 333 60005=
01392 46/// /0903 10169 20120 39898 40114 53004=
01397 26/// /1702 10131 20108 39689 40112 57001 333 60005=
01400 41497 71810 10177 20163 40093 55005 76162 8272/ 22200 06182 10603 70016=
01403 21470 72111 10171 20156 30001 40067 55002 70282 86208 333 69915=
01406 46/// /1911 10173 20160 30035 40054 55004=
01408 46/// /1809 10175 20162 30042 40073 55000=
01411 46/// /1811 10174 20156 30051 40077 53001=
01412 26/// /1807 10171 20160 30062 40092 52002 333 60005=
01413 46/// /2103 10165 20158=
01414 46/// /1912 10173 2////=
01415 27764 71807 10174 20161 30080 40090 53002 700// 333 60005=
01416 26/// ///// 10166 20153 333 60005=
01417 26/// ///// 10177 20151 333 60005=
01418 26/// ///// 10166 2//// 333 60015=
01419 26/// /2105 10154 20120 333 69975=
01422 26/// /1905 10173 20151 333 60005=
01424 26/// ///// 10154 20146 30081 40084 56006 333 60035=
01425 26/// /1703 10171 20156 30029 40107 53003 333 69945=
01426 46/// /1709 10172 2////=
01427 26/// /2008 10174 20163 30096 40112 52002 333 60005=
01429 26/// ///// 10109 2//// 333 60035=
01430 26/// ///// 10178 20173 333 60005=
01431 26/// /1804 10142 20128 39458 40097 54001 333 60125=
01434 46/// /0201 10118 20071 39157 40090 58004=
01435 26/70 /1504 10112 2//// 38968 40080 58009 333 60005=
01436 46/// /2108 10179 20169=
01440 46/// /2006 10113 2//// 38857 40094 57004=
01442 26/// /1408 10165 20150 39861 40108 57003 333 69945=
01444 26/// /0401 10139 20131 333 69995=
01449 26/// /0000 10177 20136 333 60005=
01450 26/// /1905 10109 20093 38989 40094 58006 333 60005=
01452 26/// /2108 10181 20176 30100 40120 54000 333 60005=
01453 26/// /2301 10162 20149 333 60005=
01455 26/// /1603 10160 20129 39812 40110 50002 333 60005=
01460 46/// /1808 10183 2////=
01462 26/// /1602 10175 20144 333 60005=
01463 26/// ///// 10168 20148 333 60005=
01464 26/// /2104 10179 20167 333 69915=
01465 46/// /2209 10180 2//// 30105 40119 54000=
01466 46/// /1302 10172 20145 39987 40114 55000=
01467 46/// /2108 10178 2//// 30115 40120 50004=
01468 46/// /1601 10162 20128=
01471 46/// /1702 10164 20131=
01473 46/// /1301 10170 20139 39903 40102 54001=
01477 26/// /1202 10161 20145 333 60005=
01478 46/// /2211 10181 2////=
01480 26/// /0902 10181 20144 333 60005=
01481 26/// /2003 10178 20147 30086 40117 54000 333 60005=
01482 46/// /2212 10183 20157 30109 40118 52001=
01484 46/// /1805 10166 20135 39967 40116 52001=
01486 26/// ///// 10164 20142 333 60005=
01488 26/// /1501 10167 20134 333 60005=
01489 26/// ///// 10150 20140 333 60005=
01490 26/// /1906 10137 20132 333 60005=
01492 21488 81903 10173 20148 39996 40110 55001 70222 8756/ 333 60005=
01494 47375 81705 10178 20154 30060 40122 52001 700//=
01495 26/// /2110 10183 2//// 30110 40122 52001 333 60005=
02705 46/// /1905 10095 20050 39564 40144 52006 92100 555 774// 0/205=
02714 47980 00701 10041 20039 30003 40146 52008 700// 92100 555 798// 0/602=
02717 47/70 81502 10083 20067 700// 92100 555 789// 0/502=
02719 46/// /1601 10049 20046 92100 555 60047 798// 0/602=
02721 47999 00503 10170 20116 30120 40128 52005 70000 92100 555 771// 0/606=
02722 46/// ///// 10051 20049 92100 555 798//=
02725 46/// /0000 10086 20085 92100 555 799// 0/601=
02726 47799 81902 10094 20073 39674 40124 54001 722// 88/// 92100 555 787// 81760 0/103=
02727 46/// /0000 10156 20126 30039 40136 52011 92100 555 60138 783// 0/602=
02732 46/// /0802 10150 20127 30034 40134 52011 92100 555 786// 0/002=
02733 46/// /1302 10109 20101 30082 40139 52012 92100 555 795// 0/603=
02734 46/// /3302 10102 20102 30050 40142 52013 92100 555 700// 0/002=
02735 46/// /3601 10082 20077 92100 555 797// 0/202=
02736 46/// /0000 10129 20127 30007 40141 52010 92100 555 799// 0/601=
02737 46/// /0000 10093 20081 30029 40132 51007 92100 555 60086 792// 0/602=
02738 47680 50902 10095 20089 39953 40140 52009 700// 81/// 92100 555 60091 796// 81100 0/002=
02739 47999 30000 10082 20069 39951 40149 52008 700// 80/// 92100 555 792// 0/302=
02741 47999 00000 10102 20092 30135 40150 52011 70000 92100=
02743 46/// /3303 10173 20120 92100 555 771// 0/604=
02745 46/// /0000 10026 20022 39892 40160 52007 92100 555 798// 0/600=
02746 46/// /3204 10185 20127 30109 40142 52014 92100 555 769// 0/005=
02747 46/// /3203 10170 20107 30136 40143 52016 92100 555 766// 0/605=
02751 47999 03203 10166 20115 30135 40141 52012 70000 92100 555 772// 0/605=
02752 46/// /3204 10154 20125 30113 40139 52010 92100 555 783// 0/505=
02753 47999 03302 10105 20078 39987 40138 52011 70000 92100 555 783// 0/603=
02754 46/// ///// 10133 20126 30038 40141 52013 92100=
02755 46799 30802 10090 20071 30041 40136 52007 83/// 92100=
02757 467// 32202 10165 20143 30114 40142 52013 83/// 92100 555 786// 0/303=
02758 46/// /0000 10111 20111 30090 40141 52016 92100 555 700// 0/601=
02759 47999 30000 10138 20125 30111 40139 52013 70000 83/// 92100 555 60129 792// 0/602=
02761 47974 03103 10164 20101 30110 40143 52011 70010 92100 555 766// 0/605=
02763 47999 0//// 10126 20115 30033 40135 52012 700// 92100 555 793//=
02765 46/// /1201 10163 20141 92100 555 787// 0/203=
02766 46/// /0803 10098 20087 39859 40142 52010 92100 555 793// 0/003=
02769 47968 00000 10092 20086 30024 40140 52013 70000 92100=
02772 46/// /1501 10172 20139 30043 40137 52009 92100 555 781// 0/602=
02773 47975 00000 10127 20095 30132 40143 52016 70000 92100=
02777 47967 01301 10100 20097 39996 40144 52012 70000 92100 555 798// 0/602=
02778 47968 8//// 10125 20118 30044 40139 52012 70010 88/// 92100 555 796//=
02780 46/// /3002 10162 20122 30133 40136 52008 92100 555 777// 0/502=
02781 46/// /3301 10143 20097 30132 40136 52007 92100 555 774// 0/202=
02787 469// 0//// 10089 20082 39925 40132 52009 92100 555 795//=
02788 46/// /0902 10136 20101 30029 40139 52011 92100 555 779// 0/203=
02789 47981 53601 10099 20091 39945 40145 52009 70000 80/// 92100=
02790 47999 03602 10152 20108 30119 40148 52012 70000 92100=
02791 46/// /2301 10068 20065 92100 555 797// 0/401=
02793 46/// /0603 10161 20112 30043 40138 52010 92100 555 773// 0/404=
02794 46/// /2502 10155 20139 92100 555 790// 0/002=
02795 47999 02601 10164 20133 30131 40144 52013 70010 92100 222// 00166 555 60144 782// 0/604=
02796 46/// /0000 10071 20071 92100 555 700// 0/201=
02799 47962 50801 10073 20073 39915 40156 52011 70000 80/// 92100 555 700// 86000 0/601=
02800 46/// /1106 10163 20085 30103 40130 52004 92100 555 760// 0/006=
02801 47499 71305 10094 20076 39535 40108 54001 78185 87/// 92100=
02803 46/// /1202 10071 20064 30075 40136 52006 92100 555 795// 0/602=
02804 47970 00000 10053 20047 700// 92100 555 60050 796// 0/301=
02805 47781 71401 10077 20065 30006 40139 52007 70000 81/// 92100=
02807 47911 02501 10068 20064 39962 40142 710// 92100=
02813 46/// /0000 10067 20065 30014 40146 52007 92100 555 798// 0/000=
02814 47982 00000 10043 20041 39896 40154 52007 70000 92100=
02815 46/// /0000 10063 20059 92100 555 798// 0/501=
02816 47980 11001 10042 20040 39842 40149 52005 70000 80/// 92100 555 798// 0/302=
02817 46/// /1905 10087 20046 39616 40140 54002 92100 555 60066 775// 0/005=
02818 46/// /1802 10091 20069 39833 40141 52004 92100 555 60079 786// 0/503=
02820 46/// /1907 10071 20061 39241 40139 54002 92100 555 793// 0/108=
02821 47/83 /1906 10088 20067 39466 40127 54001 70086 92100 555 787// 0/106=
02823 47899 81703 10109 20079 39842 40128 54001 700// 88///=
02824 468// 81602 10091 20073 39713 40132 54002 88/// 92100 555 789// 0/203=
02825 46/// /1001 10043 20030 30111 40140 52006 92100 555 791// 0/202=
02827 46/// /1301 10050 20043 92100 555 795// 0/302=
02828 46/// ///// 10112 20100 30133 40141 52016 92100 555 792//=
02831 46/// /0000 10137 20128 92100 555 795// 0/403=
02833 46/// /0000 10106 20096 30095 40134 52009 92100 555 794// 0/301=
02834 47799 51102 10124 20073 39896 40144 52009 700// 83/// 92100 555 771// 81650 0/203=
02835 47980 70902 10059 20057 39990 40141 52003 700// 87/// 92100=
02836 47969 01501 10056 20046 39927 40147 52007 70000 92100=
02844 47899 71302 10106 20088 30029 40133 52003 70000 87/// 92100=
02845 47/70 ///// 10084 20071 700// 92100=
02847 47882 70601 10106 20091 30042 40142 52007 70000 87/// 92100 555 791// 82250 0/101=
02849 47799 11503 10062 20057 39883 40155 52007 70000 81/// 92100=
02851 47999 00902 10085 20076 30122 40136 52006 700// 92100=
02862 47999 00903 10120 20060 30132 40137 52004 70000 92100=
02863 46/// /1004 10154 20085 30111 40132 52003 92100=
02866 47999 01102 10098 20058 30002 40150 52008 70000 92100=
02868 46/// /2006 10090 20041 92100 555 771// 0/006=
02869 47799 7//// 10098 20063 39837 40155 700// 87/// 92100 555 779// 81524=
02872 47/99 /1106 10124 20070 30130 40136 52006 70000 92100 555 769// 0/006=
02873 47799 31207 10125 20077 30124 40135 52005 70000 83/// 92100=
02874 46/// /1001 10072 20065 92100 555 795// 0/602=
02876 47/79 /1005 10138 20074 30131 40136 52006 70000 92100 555 765// 0/205=
02889 47680 11002 10073 20068 39881 40154 52008 70000 81/// 92100=
02897 47799 10000 10075 20060 39966 40146 700// 81/// 92100=
02907 46/// /1205 10169 20095 30125 40131 52004 92100=
02910 46/// /0000 10119 20113 30129 40136 52007 92100=
02913 47999 02301 10115 20100 30078 40127 52010 700//=
02915 47999 31101 10142 20119 39978 40134 52010 70000 83/// 92100=
02917 47899 80902 10157 20089 30021 40139 700// 88/// 92100=
02920 46/// /0503 10161 20114 30107 40129 52007 92100=
02924 47983 00000 10081 20076 39941 40136 52012 70000 92100=
02926 47999 02801 10118 20105 30127 40139 52011 700// 92100=
02929 47999 20000 10106 20098 39995 40142 700// 82/// 92100 555 795// 82896 0/501=
02935 47904 00000 10112 20111 39968 40138 52011 73131 92100=
02937 47783 12301 10105 20089 30094 40141 52015 700// 81/// 92100 555 60096 790// 0/603=
02939 47999 00602 10093 20087 39954 40144 52011 70000 92100=
02942 42940 13202 10122 20096 39984 40129 52007 70200 80001 555 60108 782//=
02943 46/// /2004 10165 20126 30017 40133 52012 92100 555 778// 0/206=
02944 47983 00000 10128 20107 39994 40137 700// 92100=
02945 47/99 /1602 10133 20112 39962 40136 700// 555 787// 0/303=
02947 47921 0//00 10099 20097 30019 40141 52009 710// 92100=
02948 47870 80000 10125 20122 30026 40141 700// 88/// 92100 555 798// 82286 0/000=
02950 46/// ///// 10160 20135 30139 40144 52014 92100 555 785//=
02955 47899 80000 10147 20124 30032 40133 52010 70000 88/// 92100=
02957 47981 02302 10107 20091 30124 40135 52009 700// 92100=
02958 47999 80000 10141 20118 30011 40138 700// 88/// 92100=
02959 47999 20801 10148 20118 30012 40137 52010 700// 82/// 92100 555 782// 0/601=
02963 47982 03001 10110 20105 30016 40142 52013 70000=
02964 47999 03203 10159 20113 30139 40146 52013 70000 92100=
02965 47982 00000 10115 20111 30044 40139 52013 70000 92100=
02966 47899 83602 10138 20124 30015 40134 700// 88/// 92100 555 60129 791// 0/302=
02967 47999 80302 10172 20126 30128 40134 52013 70000 88/// 92100=
02974 42899 4//// 1//// 2//// 52013 70122 84070=
02976 47980 80501 10158 20143 30123 40139 52012 700// 88/// 92100=
02978 47899 13301 10144 20120 30136 40140 52013 70000 81/// 92100=
02979 46/// /0000 10176 20125 30130 40149 52014 92100=
02980 47981 01202 10170 20119 30136 40148 52011 70000 92100=
02981 47999 03203 10161 20107 30138 40147 52016 700// 92100=
02982 46/// /3204 10184 20127 30132 40143 52013 92100=
02983 47882 8//// 10138 20134 30011 40146 52014 70000 88/// 92100 555 798//=
02984 47799 72802 10155 20142 30130 40142 52014 70000 87/// 92100=
02987 46/// /0000 10179 20140 30111 40139 52013 92100=
02991 46/// /0000 10166 20129 30106 40138 52013 92100=
02992 47/70 70000 10167 20142 30134 40138 52014 700// 92100=
02993 46/// /1505 10177 20133 30126 40144 52007 92100=
03002 47381 /1710 10122 20118 39982 40000 56008 723// 333 82/06 86/44=
03005 41669 71907 10122 20119 39906 40004 56008 70265 875// 333 55300 20002 87648=
03008 45970 /2115 10132 20111 39935 40006 58007 333 83/58 87/61=
03010 46/// /2212 10130 20110 49994 53003 333 90710 91128=
03017 45780 /2016 10136 20107 39971 40002 56007 333 55300 20001 81/50 83/63=
03023 47558 /2318 10131 20101 30008 40012 51009 704// 333 85/21=
03026 45667 /2316 10121 20089 39980 49998 51011 333 55300 20005 82/41=
03034 45965 /1806 10122 20094 30004 40017 53013 333 8//99=
03039 46/// /2125 10069 20069 333 90710 91131=
03044 47970 /2208 10116 20082 39914 40011 53007 723// 333 55300 20005 8//99=
03047 47584 /2107 10126 20100 39748 40042 56005 723// 333 553// 20001 86/29 83/57=
03062 45783 /2211 10139 20101 30014 40019 53004 333 553// 20001 87/50=
03063 45585 /2207 10131 20092 39753 40021 58005 333 55300 20000 82/29=
03066 45786 /2008 10152 20084 30017 40023 53002 333 55300 20000 81/50 83/60=
03068 42684 62215 10155 20079 30013 40021 55002 81531 333 81645 86359=
03072 46/// /2232 10081 20078 333 90710 91142=
03075 45681 /2014 10142 20103 39969 40012 55002 333 81/46 88/61=
03080 45683 /2309 10155 20083 39871 40036 56003 333 87/43=
03088 45683 /2311 10141 20108 39887 40045 51002 333 553// 20004 81/37 87/71=
03091 45884 /2408 10159 20083 39961 40037 50000 333 55300 20000 83/57 84/72=
03100 45461 /2309 10120 20101 30018 40034 52005 333 55300 20004 81/18=
03111 46678 /2512 10153 20112 30037 40049 55003 333 81/32 87/58=
03132 45778 /2007 10149 20140 30050 40063 57003 333 81/50 87/59 87/70=
03134 45668 /2104 10147 20132 39979 40049 56005 333 55300 20000 87/42=
03136 45683 /1809 10159 20125 30023 40055 57004 333 55300 20000 85/40 87/45=
03144 45783 /2502 10146 20127 30005 40047 58006 333 553// 20000 88/50=
03148 46/// /2014 10107 20092 333 90710 91130=
03153 47159 /2113 10155 20153 39934 40068 52001 761// 333 55300 20000 81/02 85/41=
03158 47983 /2108 10149 20142 39926 40058 57003 781// 333 55300 20000 87/60=
03162 47960 /2008 10150 20143 39790 40068 56003 762// 333 55300 20000 87/58=
03166 45784 /2108 10162 20114 39983 40050 57003 333 55300 20000 87/56=
03171 45883 /2410 10155 20128 30032 40044 58005 333 55300 20001 83/57 85/71=
03204 41258 82310 10158 20154 30060 40079 55003 76362 8657/ 333 55300 20000 83703 86635 87357=
03210 46157 /2117 10159 20156 39936 40082 56003 333 85/02 87/56=
03212 47783 /2305 10169 20142 39985 40080 57004 723// 333 86/50 86/68=
03214 47369 /2217 10171 20167 30069 40087 58003 723// 333 87/06=
03220 46784 ///// 10163 20144 30042 40075 56003 333 88/50=
03224 47783 /2308 10138 20133 39738 40074 55005 723// 333 88/56=
03225 46684 /2407 10148 20138 39789 40086 56002 333 55300 20000 84/35 86/45 90710 91125=
03226 47465 /2005 10147 20139 39820 40088 55001 762// 333 82/13 85/30=
03230 46684 /2108 10146 20135 39824 40073 55002 333 82/44 86/57 85/69=
03238 47683 /2602 10147 20141 39904 40072 58002 723// 333 87/49=
03240 47773 /2004 10163 20147 30042 40070 58005 781// 333 55300 20000 88/56=
03257 47684 /1913 10182 20167 30052 40091 57001 723// 333 55300 20000 82/39 87/50=
03266 46666 /2115 10193 20158 30081 40097 57001 333 81/34 86/60=
03275 47484 /2015 10175 20162 39904 40089 50003 723// 333 85/16 84/56 90710 91126=
03281 46/// /2120 10169 20157 333 90710 91127=
03292 466// /2208 10205 20159 30083 40101 52003 333 81/33 87/58=
03301 46157 /2121 10163 20160 30025 40096 57005 333 88/02 90710 91131 91031=
03302 47250 /2122 10164 20160 30080 40094 56004 710// 333 55300 20000 88/03 90710 91130=
03305 47257 /2325 10162 20162 39847 40101 57007 757// 333 87/04 90710 91136=
03313 46884 /1907 10170 20153 30008 40099 58007 333 87/57=
03316 47457 /2216 10181 20166 30093 40104 56002 762// 333 83/17 85/25=
03318 46/// /2110 10178 20173 333 90710 91126=
03321 47583 /2212 10183 20161 30098 40110 56001 781// 333 55300 20000 83/22 83/50 86/59=
03330 47484 /2112 10164 20152 39771 40120 57006 723// 333 88/10=
03344 47450 /2111 10167 20160 39791 40097 56003 761// 333 83/11 84/18 86/23=
03351 45584 /2108 10194 20156 30067 40108 56007 333 55300 20000 84/20 87/27=
03354 47580 /2210 10193 20143 39989 40126 54000 723// 333 55300 20000 87/23 83/57 91021=
03373 46680 /2411 10177 20157 30050 40118 54000 333 82/35 87/62=
03377 42682 72216 10203 20130 30040 40120 58001 8257/ 333 55300 20000 82638 87361=
03379 46982 /2215 10201 20145 30051 40125 58001 333 86/60 83/63=
03382 47783 /2110 10202 20150 30096 40104 50001 723// 333 55300 20000 87/56=
03385 46670 /1908 10201 20138 30109 40118 51003 333 81/38 83/58=
03391 42682 52008 10195 20131 30119 40126 51003 84530 333 84644 85358=
03392 46667 /2209 10181 20148 30125 40128 51003 333 81/47=
03405 46057 /2125 10154 20153 39995 40108 58006 333 55300 20000 88/01 90710 91132=
03409 46/// /2308 10166 20155 39917 40110 57006 333 55300 2//// 90710 91125=
03410 462// /2213 10156 20155 39692 40113 56007 333 55300 20000 86/03 86/12 91024=
03414 45581 /2017 10187 20155 30033 40118 56006 333 55300 20000 85/21 86/44=
03462 45682 /2317 10200 20141 30044 40130 54000 333 55300 20000 81/30=
03469 45783 /2109 10177 20137 30130 40134 52002 333 553// 20000 81/50=
03488 45984 /2108 10191 20139 30111 40136 52003 333 55300 2//// 8//99=
03502 47357 /2111 10169 20164 39964 40121 57006 757// 333 55300 20000 87/06 83/14=
03503 47450 /1805 10174 20166 30048 40123 57009 762// 333 81/10 87/19=
03507 47129 /2215 10157 20156 39773 40134 57008 762// 333 87/02 84/09 85/12=
03520 46484 /2207 10182 20159 30016 40133 56008 333 55300 20000 88/15=
03522 45562 /0803 10184 20154 30049 40139 56008 333 88/20=
03529 45584 /2111 10193 20150 30101 40143 56003 333 82/23 87/29=
03535 45684 /2111 10195 20145 30019 40131 56003 333 553// 20000 84/37 86/56 90710 91125 91022=
03544 45584 /2207 10195 20144 30012 40138 57001 333 553// 20000 86/23 84/50=
03560 45583 /2208 10203 20143 30043 40143 52001 333 553// 20000 88/29=
03590 45682 /2309 10188 20136 30045 40151 53004 333 55300 20000 83/40=
03604 46265 /2312 10172 20169 30077 40129 57007 333 87/03 87/11 91023=
03605 46219 /2123 10179 20175 30127 40135 58009 333 87/03 90710 91128=
03609 46/// /2130 10179 20170 30091 40142 58011 333 90710 91136=
03628 47485 /2109 10176 20162 30080 40150 58005 723// 333 55300 20000 82/15 83/40=
03647 46480 /2410 10171 20158 39898 40145 56002 333 553// 20000 85/10 85/17 85/23=
03649 42581 72208 10195 20145 30053 40149 57002 875// 333 55300 2//// 83622 86630=
03658 42580 72012 10195 20145 30086 40153 50000 875// 333 81625 87634=
03660 45582 /2307 10182 20143 39915 40155 54000 333 81/21 88/26 91018=
03684 45974 /2210 10183 20145 30050 40153 51006 333 8//99=
03693 45981 /2311 10184 20150 30160 40163 52006 333 55300 2//// 8//99=
03707 45484 /2213 10186 20160 30147 40154 57005 333 85/12 86/21=
03710 46276 /2214 10153 20153 39746 40156 56007 333 55300 20000 85/03 85/21=
03716 47483 /2413 10184 20157 30091 40149 56005 723// 333 55300 20000 84/17 85/30 85/37=
03740 464// /2107 10182 20147 39984 40155 55002 333 55300 20000 87/17=
03743 46580 /2105 10179 20145 30006 40162 53001 333 87/24 87/32=
03746 45581 /2112 10177 20148 30015 40164 52001 333 85/25 87/31=
03749 42580 72110 10180 20146 30059 40166 52002 878// 333 81826 87632=
03768 46672 /2009 10174 20143 30087 40164 51002 333 86/35=
03769 45980 /2206 10162 20140 30088 40168 51001 333 55300 20000 8//99=
03770 46/// ///// 10194 20144=
03772 45682 /2012 10195 20146 30131 40160 52002 333 55300 20000 88/36=
03781 45683 /2110 10167 20139 39966 40167 50001 333 553// 20000 87/32=
03784 46/// /2108 10179 20142 30156 40160 51004=
03796 46/// /2411 10170 20161 30036 40175 53002=
03797 45980 /2109 10167 20142 30113 40172 53004 333 55300 20000 8//99=
03803 45463 /2219 10177 20162 30123 40160 57008 333 88/11 90710 91127=
03808 41358 82213 10169 20161 30059 40163 57006 76065 887// 333 55300 20000 88706=
03809 46468 /2116 10170 20156 30076 40167 56005 333 87/11=
03823 47239 /2108 10161 20157 39927 40164 57004 722// 333 553// 20000 85/04 85/17=
03827 47460 /2213 10168 20160 30112 40172 56006 710// 333 84/10 87/17=
03840 47380 /2209 10166 20152 39866 40163 56004 723// 333 87/07=
03853 42460 72011 10185 20158 30139 40162 55002 875// 333 55300 20000 82712 84628 86630=
03862 45465 /2308 10184 20162 30159 40171 57001 333 55300 20000 85/11 87/35=
03866 46/// /2519 10177 20164 30151 40175 57001=
03872 45475 /2513 10176 20157 30170 40174 54000 333 553// 20000 81/12 85/39=
03876 46/// /2312 10183 20159 30174 40176 52001=
03882 45967 /2405 10165 20150 30116 40178 52001 333 55300 20000 8//99=
03894 42280 72511 10168 20165 40194 55000 875// 333 84705 86626=
03901 47573 /2607 10129 20114 39976 40062 53002 723// 333 55300 20004 84/23 85/33=
03904 47661 /2303 10117 20102 30000 40059 51006 723// 333 83/33 86/46=
03907 47672 /2513 10142 20105 30047 40054 53004 723// 333 55300 20000 81/39 87/56=
03911 47361 /2811 10126 20120 39796 40063 55002 762// 333 82/06 86/40=
03916 47584 /2508 10136 20106 39872 40057 53002 723// 333 553// 20001 81/25 87/50=
03917 47557 /2210 10143 20123 39987 40062 55002 782// 333 55300 20000 81/21 85/34 86/50=
03923 47467 /2505 10138 20118 39871 40062 56002 781// 333 85/19 83/25=
03951 47462 /2506 10141 20130 30094 40120 53001 7818/ 87/// 333 81/12 87/28=
03952 45463 /2306 10155 20137 30064 40113 52002 87/// 333 87/14=
03953 47569 /2605 10140 20095 30089 40119 53012 70185 82/// 333 82/25=
03955 41375 72306 10147 20139 39917 40109 55002 72052 876// 333 84707 87712=
03956 45361 /2306 10155 20143 30027 40102 56004 81/// 333 81/07 87/63=
03961 45684 /2202 10169 20110 30018 40092 52002 83/// 333 83/38 87/69=
03962 41470 72505 10142 20118 30079 40102 53008 72582 8783/ 333 81714 83622 87630=
03963 45562 /2611 10143 20096 30057 40084 53007 87/// 333 87/28=
03966 47569 /2303 10133 20123 30003 40094 53004 78186 87/// 333 81/26 85/30 87/44=
03967 41670 42503 10148 20120 39973 40084 52002 70186 83502 333 83640=
03969 41580 72302 10156 20114 39983 40084 51003 70282 8683/ 333 81820 85642 85650=
03970 46/// /2203 10116 20095 39997 40080 52011=
03971 47480 /2302 10137 20125 39964 40083 53004 7818/ 87/// 333 81/10 83/16 85/28=
03973 46/// /2403 10106 20098 39830 40081 52009=
03976 45562 /2409 10136 20104 30055 40066 50004 87/// 333 87/25=
03978 47/61 /2405 10123 20086 30024 40065 52008 70186=
03979 47369 /2702 10135 20125 39977 40071 53002 7238/ 88/// 333 81/09 83/16 85/19=
03980 47661 /2309 10132 20101 30023 40048 50003 70185 86/// 333 86/37=
06011 27473 51304 10116 20096 39856 49923 57004 70086 333 55300 20014 69937 81/12 83/21 85/26=
06019 26/// /1910 10181 20168 333 55300 20000 6///7=
06030 25/81 /2010 10196 20166 30132 40147 52002 333 6///7=
06031 26/// /2102 10179 20161 333 55300 20000 6///7=
06041 25582 72208 10183 20183 30137 40143 52003 333 55300 20000 6///7 81/23 85/41 87/47=
06049 45684 72108 10181 20153 30050 40155 52007 333 85/40 87/57=
06052 25468 82009 10190 20171 30139 40143 52002 333 6///7 81/15 88/42=
06058 255// 52013 10191 20177 30144 40149 57001 333 55300 20004 6///7 81/32 85/39=
06060 25680 81805 10188 20166 30091 40152 54000 333 6///7 88/38=
06069 46/// ///// 30085 52007=
06070 25/82 /2304 10190 20161 30135 40164 52008 333 6///7=
06074 25684 82304 10182 20157 30094 40160 52007 333 6///7 88/38=
06079 27/82 02208 10195 20190 30149 40153 52004 70086 333 55300 20004 69907=
06081 46/// /2017 10192 20171 30133 40154 54000=
06096 45573 71906 10192 20168 30150 40161 54000 333 55300 20000 81/21 87/30=
06108 46/// /1705 10172 20156 30112 40165 52001=
06119 25666 72007 10192 20162 30149 40172 52002 333 6///7 87/38=
06123 45/82 /2209 10197 20165 30166 40170 52002 333 55300 20000=
06124 45/77 /1601 10161 20147 30164 40172 52003=
06136 26/// /2306 10184 20153 333 55300 20000 6///7=
06138 46/// /2105 10194 20174 30170 40175 52004=
06141 25/80 02102 10171 20149 30165 40176 52006 333 55300 20000 6///7=
06147 25/62 /2308 10195 20173 30172 40177 52006 333 6///7=
06149 26/// /2207 10203 20179 30174 40180 52005 333 55300 20000 6///7=
06151 46/// /2206 10190 20170 30170 40173 52008=
06156 25/83 02303 10182 20160 30152 40167 52009 333 55300 20000 6///7=
06159 26/// /2511 10191 20166 30146 40165 52007 333 6///7=
06168 46/// /2003 10172 20146 30114 40165 52005=
06169 25/81 /2517 10192 20173 30143 40162 52007 333 6///7=
06174 27/59 /2104 10173 20157 30145 40170 52007 71010 333 55300 20000 6///7=
06180 25/86 02306 10186 20164 30165 40171 52003 333 6///7=
06181 46/// /2203 10190 20158 30119 40169 52008=
06183 45/84 /2512 10197 20169 30151 40168 52005=
06193 25/67 02307 10182 20182 30166 40177 52007 333 55300 20004 6///7=
06201 45663 72008 10187 20173 30073 40123 56004 8//// 333 85/35 86/42 87/64 91011 91112 91210 555 51111 51209=
06203 45969 12111 10190 20163 30108 40157 53001 8//// 333 81/65 91013 91114 91212 555 51114 51212=
06204 45663 81912 10188 20169 30102 40152 57002 8//// 333 88/44 91013 91114 91212 555 51114 51212=
06205 45662 81809 10186 20171 30060 40117 58005 8//// 333 86/38 88/42 91010 91111 91209 555 51111 51209=
06208 45567 52106 10196 20160 30118 40166 57002 8//// 333 85/33 91007 91109 91207 555 51109 51207=
06211 45663 82108 10190 20173 30083 40137 56004 8//// 333 88/43 91009 91111 91209 555 51110 51209=
06212 45672 61810 10192 20162 30098 40158 58003 8//// 333 85/41 86/69 91012 91113 91211 555 51113 51211=
06225 46/// /2009 333 91011 91112 91210 555 51111 51210=
06229 46/// /2210 333 91012 91113 91211 555 51113 51211=
06235 45480 12107 10189 20152 30162 40162 58004 8//// 333 81/19 91009 91110 91207 555 51110 51207 53000=
06240 45564 82003 10187 20159 30177 40172 58003 8//// 333 88/33 91005 91109 91207 555 51105 51204 53000=
06242 45676 72006 10184 20158 30157 40160 58002 8//// 333 87/36 91008 91110 91208 555 51109 51207=
06248 46/// /2106 333 91007 91109 91208 555 51107 51206=
06249 45/65 /2003 10177 20153 333 91004 91109 91206 555 51105 51204 53000=
06251 45/80 /2207 10191 20164 30163 40164 58001 333 91008 91111 91209 555 51110 51208 53000=
06257 46/// ///// 10194 20154 555 53000=
06258 46/// /2207 333 91008 91110 91209 555 51110 51208=
06267 45676 72106 10190 20152 8//// 333 87/36 87/82 91008 91109 91207 555 51109 51207 53000=
06269 45664 61803 10183 20156 30180 40174 58002 8//// 333 86/38 91003 91106 91204 555 51104 51203 53000=
06273 46/// /1803 10186 20159 333 91004 91105 91203 555 51104 51203 53000=
06275 45965 01902 10173 20154 30127 40180 50000 333 91003 91105 91203 555 51104 51203 53000=
06277 46/// /1906 10191 20166 333 91008 91109 91206 555 51108 51206 53000=
06278 46/// /1801 10163 20148 333 91001 91105 91203 555 51102 51201 53000=
06279 47613 71702 10164 20149 30159 40178 50003 71000 8//// 333 82/42 87/81 91002 91106 91204 555 51102 51202 53000=
06280 45666 41802 10171 20146 30169 40173 50001 8//// 333 83/35 84/82 91003 91107 91205 555 51104 51203 53000=
06283 46/// /1801 10160 20145 333 91002 91104 91202 555 51102 51201 53000=
06286 46/// /2003 10177 20158 333 91003 91107 91204 555 51104 51203 53000=
06310 45981 02205 10185 20149 30171 40180 52003 333 91007 91107 91206 555 51107 51205 53000=
06319 45/82 /2204 10188 20143 30182 40184 52002 333 91007 91107 91205 555 51107 51204 53000=
06320 45/73 /2411 10197 20150 30142 40168 58003 333 91013 91113 91211 555 51113 51211=
06321 45/83 /2111 10192 20153 30149 40172 56001 333 91014 91115 91212 555 51114 51212=
06323 46/// /2002 10174 20152 30177 40179 50000 333 91004 91104 91203 555 51104 51202 53000=
06330 46/// /2207 10188 20159 30160 40174 58002 333 91010 91110 91207 555 51110 51207 53000=
06340 45681 11902 10190 20146 30162 40180 58002 8//// 333 81/34 91003 91106 91203 555 51105 51203=
06343 46/// /2304 333 91006 91107 91206 555 51106 51205=
06344 45577 82303 10185 20156 30182 40176 58001 8//// 333 82/24 83/27 88/32 91005 91106 91204 555 51105 51203 53000=
06348 45/77 /1804 10193 20150 30177 40176 58001 333 91005 91107 91205 555 51106 51204 53000=
06350 45673 31903 10173 20144 30168 40182 58001 8//// 333 83/34 91004 91105 91203 555 51104 51203 53000=
06356 466// 81802 10186 20147 30178 40179 58001 8//// 333 88/35 91004 91107 91204 555 51104 51202 53000=
06370 45977 01902 10164 20146 30160 40185 58001 333 91002 91106 91204 555 51102 51202 53000=
06375 45970 12001 10159 20146 30161 40185 50001 8//// 333 81/82 91002 91106 91205 555 51103 51202 53000=
06377 45963 01901 10158 20150 333 91002 91106 91203 555 51102 51202 53000=
06380 45980 02102 10167 20146 30058 40191 50000 333 91002 91105 91203 555 51103 51202 53000=
06391 46/// /2201 10166 20156 333 91002 91106 91203 555 51102 51201 53000=
06400 45/68 /2003 10162 20132 30177 40183 54000 333 91106 91205=
06407 42575 11903 10154 20125 30180 40186 54000 81501 333 81630 91108 91206=
06414 46/// /2103 10168 20143 30158 40190 50002 333 91107 91205=
06418 46/// /2006 10182 20143 30167 40183 53001 333 91109 91207=
06428 45570 /2203 10181 20140 30147 40190 52002 333 85/30 91106 91203=
06431 46/// /2203 10194 20157 30176 40188 54000 333 91106 91204=
06432 45670 /1803 10168 20142 30123 40193 54000 333 85/37 91105 91204=
06434 46/// /2302 10177 20147 30170 40189 54000 333 91105 91203=
06438 46/// /1903 10190 20152 30180 40186 56002 333 91108 91206=
06439 46/// /1602 10176 20139 30178 40189 58001 333 91104 91203=
06447 46/// /1703 10174 20136 30064 40185 58002 333 91106 91204=
06449 42970 01902 10165 20127 39976 40199 50000 333 91106 91204=
06450 42980 01903 10187 20142 30172 40187 50001 333 91106 91204=
06451 42980 01903 10164 20135 30126 40192 58001 333 91105 91204=
06455 46/// /0000 10151 20137 39913 40192 58001 333 91102 91201=
06456 45570 ///// 10162 20132 39864 40197 54000 333 81/25 87/71 91100 912//=
06458 45/70 /2103 10170 20131 30061 40193 50000 333 91105 91204=
06459 46/// /2002 10165 20133 30008 40198 54000 333 91107 91205=
06464 46/// /2001 10163 20142 30163 40190 54000 333 91105 91202=
06465 45/70 /9901 10176 20141 30130 40191 54000 333 91104 91202=
06472 46/// /1801 10156 20124 39857 40207 56003 333 91104 91203=
06476 45972 02401 10128 20114 39556 40206 57002 333 91105 91203=
06477 46/// /1801 10154 20145 40194 333 91105 91203=
06478 42980 02303 10168 20141 39981 40195 57001 333 91106 91203=
06479 45/67 /9901 10172 20152 30120 40192 54000 333 91106 91205=
06484 46/// /0302 10139 20128 39821 40206 52001 333 91103 91202=
06490 45977 02002 10138 20098 39645 40203 54002 333 91105 91203=
06494 46/// /2501 10118 20104 39419 40203 57002 333 91103 91202=
06496 45/66 /9901 10131 20127 39547 40205 54000 333 91102 91201=
06590 42/83 03003 10171 20143 39761 40198 50002 333 91106 91204=
07002 22962 12213 10178 20145 30103 40183 57001 81040 333 60007 81360 90710 91122 92427 555 60005=
07003 24586 72506 10186 20149 30166 40190 56001 700// 333 4//// 69907 90710 91111 555 60005=
07005 24/70 /2002 10177 20140 30107 40192 56002 700// 333 4/000 60007 90710 91104 555 60005=
07010 22575 52109 10179 20140 30162 40181 51001 82530 333 60007 82620 84358 90710 91115 92428 555 60005=
07015 24685 /2406 10177 20132 30134 40190 50003 700// 333 4/000 60007 90710 91110 555 60005=
07020 22964 12413 10173 20162 30181 40191 58001 81030 333 6///7 81358 90710 91117 555 60005=
07024 24/72 /2406 10151 20140 30032 40195 54000 700// 333 4//// 69927 90710 91110 555 60005=
07027 24586 82903 10187 20154 30118 40197 50000 700// 333 4/000 60007 90710 91108 555 60005=
07028 22670 82610 10197 20143 30072 40194 56002 886// 333 60007 88733 90710 91120 92428 555 60005=
07031 24583 82901 10183 20157 30031 40199 57001 700// 333 4/000 60007 90710 91103 555 60005=
07037 24982 /2904 10163 20148 30016 40196 54000 700// 333 4/000 60007 90710 91106 555 60005=
07038 24985 /2703 10182 20141 30034 40196 52001 700// 333 4//// 60007 90710 91104 555 60005=
07040 26/// /2206 10197 20149 30145 40192 56001 333 4//// 60007 90710 91111 555 60005=
07046 24570 82511 10196 20142 30088 40195 56002 700// 333 4/000 60007 90710 91115 555 60005=
07055 24965 /3403 10165 20141 30063 40195 50001 700// 333 4/000 60007 90710 91106 555 60005=
07057 24/70 /0000 10165 20145 30088 40192 50000 700// 333 4//// 60007 90710 91103 555 60005=
07059 24981 83205 10157 20134 30061 40194 50001 700// 333 4/000 60007 90710 91108 555 60005=
07061 24/61 /1303 10164 20137 30077 40193 50000 700// 333 4/000 60007 90710 91103 555 60005=
07072 24970 /3402 10136 20115 30083 40197 50000 700// 333 4/000 60007 90710 91103 555 60005=
07075 24905 /1101 10132 20123 30025 40202 50000 744// 333 4//// 60007 90710 91102 555 60005=
07093 24985 /3603 10189 20135 39895 40195 50001 700// 333 4/000 60007 90710 91104 555 60005=
07100 22365 82209 10165 20160 30111 40192 57004 885// 333 60007 90710 91112 92437 555 60005=
07103 26/// /2307 1//// 2//// 3//// 4//// 333 4//// 6///7 90710 91112 555 6///5=
07107 26/// /2004 1//// 2//// 3//// 4//// 333 4//// 6///7 90710 91110 555 6///5=
07110 24484 82308 10173 20158 30085 40201 50000 700// 333 4/000 60007 90710 91112 555 60005=
07117 26/// /2405 10177 20157 30129 40198 53001 333 4//// 60007 90710 91107 555 60005=
07118 24586 82206 10179 20152 30096 40199 55000 700// 333 4/000 60007 90710 91110 555 60005=
07120 24570 71603 10169 20161 30038 40197 50000 700// 333 4/000 60007 90710 91106 555 60005=
07125 24680 63503 10171 20156 30122 40199 54000 700// 333 4/000 60007 90710 91104 555 60005=
07130 24976 /3402 10186 20157 30151 40195 53002 700// 333 4/000 60007 90710 91105 555 60005=
07134 24970 /3502 10196 20150 30076 40193 53002 700// 333 4/000 60007 90710 91104 555 60005=
07139 24970 /0104 10163 20141 30025 40197 52001 700// 333 4/000 60007 90710 91105 555 60005=
07140 24984 /3603 10187 20133 30044 40193 50001 700// 333 4//// 60007 90710 91107 555 60005=
07143 24970 /3303 10187 20146 30012 40194 52003 700// 333 4/000 60007 90710 91106 555 60005=
07145 24970 /3202 10196 20142 39989 40192 53001 700// 333 4//// 60007 90710 91105 555 60005=
07146 24981 /0000 10180 20127 30003 40192 54000 700// 333 4/000 60007 90710 91106 555 60005=
07149 22975 10000 10181 20132 30085 40191 57001 80001 333 60007 81075 90710 91105 93100 555 60005=
07150 24984 /0503 10197 20132 30133 40191 54000 700// 333 4/000 60007 90710 91105 555 60005=
07153 24970 /0903 10174 20125 30083 40192 56001 700// 333 4/000 60007 90710 91106 555 60005=
07156 24/70 /1702 10202 20136 30098 40189 50000 700// 333 4/000 60007 90710 91107 555 60005=
07157 22980 00302 10210 20139 30060 40191 57001 333 60007 90710 91112 93100 555 60005=
07166 24982 /0807 10181 20138 39997 40193 50001 700// 333 4/000 60007 90710 91109 555 60005=
07168 24970 /1103 10195 20137 30053 40191 50000 700// 333 4/000 60007 90710 91105 555 60005=
07169 24983 /1002 10183 20144 30031 40193 58002 700// 333 4//// 60007 90710 91106 555 60005=
07180 24969 /0401 10177 20144 39946 40196 50002 700// 333 4/000 60007 90710 91104 555 60005=
07181 24982 /3503 10177 20134 39798 40197 50003 700// 333 4//// 60007 90710 91105 555 60005=
07190 24982 /3305 10178 20145 30016 40194 51005 700// 333 4/000 60007 90710 91107 555 60005=
07200 22568 82104 1//// 2//// 3//// 4//// 885// 333 6///7 90710 91107 92427 555 6///5=
07201 24486 80000 10175 20149 30104 40205 50000 700// 333 4//// 60007 90710 91109 555 60005=
07203 22575 33112 10183 20157 81501 333 60007 90710 91118 92428 555 60005=
07205 24983 /3004 10164 20158 30149 40201 58001 700// 333 4/000 60007 90710 91108 555 60005=
07207 26/// /3208 10172 20155 30152 40203 52001 333 4//// 60007 90710 91111 555 60005=
07217 24983 /3203 10181 20157 30191 40195 53001 700// 333 4/000 60007 90710 91111 555 60005=
07222 24982 /3104 10188 20164 30161 40192 52004 700// 333 4/000 60007 90710 91107 555 60005=
07230 24/70 /0000 10180 20153 30137 40194 55000 700// 333 4/000 60007 90710 91101 555 60005=
07235 24970 /0303 10196 20146 30131 40192 52003 700// 333 4/000 60007 90710 91104 555 60005=
07240 24981 /3402 10196 20135 30060 40191 57001 700// 333 4/000 60007 90710 91103 555 60005=
07245 24/70 /0203 10188 20130 30038 40191 54000 700// 333 4/000 60007 90710 91105 555 60005=
07247 24910 /0000 10148 20135 30090 40190 50001 710// 333 4//// 60007 90710 91102 555 60005=
07249 24972 /3504 10185 20125 30041 40188 50001 700// 333 4/000 60007 90710 91106 555 60005=
07255 24/70 /3503 10208 20142 39995 40188 50001 700// 333 4/000 60007 90710 91105 555 60005=
07257 24983 /0403 10206 20135 39980 40186 52001 700// 333 4//// 60007 90710 91107 555 60005=
07260 24970 /3103 10161 20125 39981 40190 52002 700// 333 4/000 60007 90710 91105 555 60005=
07266 24970 /3403 10205 20130 30010 40188 50002 700// 333 4/000 60007 90710 91105 555 60005=
07280 24986 /3203 10202 20139 39921 40184 50001 700// 333 4/000 60007 90710 91105 555 60005=
07283 24/70 /3402 10181 20123 39653 40190 50000 700// 333 4/000 60007 90710 91104 555 60005=
07288 26/// /0000 10197 20132 39826 40184 50001 333 4//// 60007 90710 91102 555 60005=
07292 24983 /0000 10180 20143 39870 40188 50002 700// 333 4/000 60007 90710 91103 555 60005=
07296 24970 /3502 10197 20149 39725 40186 50002 700// 333 4/000 60007 90710 91107 555 60005=
07299 22884 12503 10167 20134 39869 40189 50003 81501 333 60007 81657 90710 91104 93100 555 60005=
07300 21970 23409 10180 20158 30156 40194 56001 701// 80001 333 60007 90710 91115 92428 555 60005=
07306 24986 /0603 10189 20154 30086 40191 52003 700// 333 4/000 60007 90710 91106 555 60005=
07314 22965 03510 10198 20176 30162 40189 53001 333 60007 90710 91117 555 60005=
07316 24979 /0403 10199 20186 30166 40187 53001 700// 333 4/000 60007 90710 91108 555 60005=
07330 24/70 /0303 10206 20135 30118 40190 52003 700// 333 4//// 60007 90710 91107 555 60005=
07335 24985 /3402 10192 20136 30050 40191 52001 700// 333 4/000 60007 90710 91106 555 60005=
07354 24986 /0204 10177 20132 30004 40189 50000 700// 333 4/000 60007 90710 91104 555 60005=
07361 24/70 /0000 10157 20130 39765 40191 50002 700// 333 4/000 60007 90710 91103 555 60005=
07374 24/70 /0000 10174 20147 39894 40187 50001 700// 333 4/000 60007 90710 91102 555 60005=
07379 24973 /0000 10196 20140 39902 40183 53001 700// 333 4/000 60007 90710 91104 555 60005=
07385 24/70 /3105 10214 20143 39928 40181 50001 700// 333 4/000 60007 90710 91108 555 60005=
07386 24985 /0403 10203 20146 39955 40181 58001 700// 333 4/000 60007 90710 91107 555 60005=
07412 24985 /0207 10238 20136 30143 40179 50002 700// 333 4//// 60007 90710 91109 555 60005=
07434 24986 /0107 10215 20137 39722 40182 53003 700// 333 4/000 60007 90710 91111 555 60005=
07438 24/70 /0000 10218 20163 30038 40174 53006 700// 333 4/000 60007 90710 91103 555 60005=
07460 24985 /2704 10194 20138 39808 40185 50002 700// 333 4/000 60007 90710 91106 555 60005=
07471 24970 /2403 10144 20110 39252 4//// 52005 700// 333 4/000 60007 90710 91104 555 60005=
07475 24983 /1702 10178 20139 39731 40189 51007 700// 333 4/000 60007 90710 91105 555 60005=
07480 24985 /3504 10230 20129 39947 40175 52002 700// 333 4/000 60007 90710 91107 555 60005=
07481 22986 03503 10213 20140 39899 40176 50002 333 60007 90710 91108 93100 555 60005=
07482 24/70 /0303 10187 20154 39889 40182 50002 700// 333 4/000 60007 90710 91105 555 60005=
07486 24974 /1703 10206 20133 39733 40175 50001 700// 333 4/000 60007 90710 91105 555 60005=
07487 26/// /3601 10187 20163 39913 40169 51008 333 4//// 60007 90710 91102 555 60005=
07490 24986 /0303 10197 20129 39654 40174 50003 700// 333 4/000 60007 90710 91109 555 60005=
07491 24969 /2103 10185 20150 39901 40175 50005 700// 333 4/000 60007 90710 91104 555 60005=
07497 26/// /3601 10183 20127 39205 48547 51018 333 4/000 60007 90710 91104 555 60005=
07500 22963 00307 10227 20174 30142 40175 53002 333 60007 90710 91112 555 60005 92437=
07503 24970 /0503 10211 20185 30129 40175 53001 700// 333 4//// 60007 90710 91105 555 60005=
07510 24985 /0105 10233 20175 30119 40175 50003 700// 333 4/000 60007 90710 91109 555 60005=
07524 24986 /0000 10195 20165 30090 40171 53001 700// 333 4/000 60007 90710 91102 555 60005=
07530 24984 /0000 10189 20176 30111 40172 56001 700// 333 4/000 60007 90710 91104 555 60005=
07535 24970 /1702 10194 20157 39871 40173 52001 700// 333 4/000 60007 90710 91103 555 60005=
07540 24/70 /2904 10238 20145 30043 40166 50003 700// 333 4/000 60007 90710 91107 555 60005=
07549 24986 /0703 10186 20112 39451 40177 50004 700// 333 4/000 60007 90710 91107 555 60005=
07552 24986 /0304 10211 20133 39516 40169 52003 700// 333 4/000 60007 90710 91108 555 60005=
07554 24970 /1504 10169 20093 39139 4//// 50003 700// 333 4/000 60007 90710 91109 555 60005=
07558 24/70 /0407 10210 20099 39366 40163 51009 700// 333 4/000 60007 90710 91110 555 60005=
07560 24/70 /1906 10149 20111 38487 4//// 52001 700// 333 4//// 60007 90710 91109 555 60005=
07563 24986 /3404 10224 20148 30101 40157 50003 700// 333 4/000 60007 90710 91108 555 60005=
07570 24/70 /3606 10223 20131 39857 40178 51006 700// 333 4//// 60007 90710 91110 555 60005=
07577 24/70 /0310 10239 20151 30077 40162 52006 700// 333 4/000 60007 90710 91114 555 60005=
07579 24986 /3508 10244 20139 30094 40157 51006 700// 333 4//// 60007 90710 91112 555 60005=
07586 26/// /1101 10211 20171 30034 40157 52007 333 4//// 60007 90710 91106 555 60005=
07588 24970 /3002 10196 20146 39641 40167 52016 700// 333 4/000 60007 90710 91104 555 60005=
07591 24/70 /2902 10187 20135 39192 4//// 51017 700// 333 4//// 60007 90710 91103 555 60005=
07600 22665 52405 10210 20188 30125 40175 54000 85500 333 60007 85633 90710 91106 555 60005 92437=
07602 24969 /2103 10206 20191 30088 40171 53001 700// 333 4/000 60007 90710 91104 555 60005=
07603 26/77 /0304 10234 20172 30132 40168 53002 333 4/000 60007 90710 91107 555 60005=
07607 24986 /0000 10201 20159 30105 40174 52004 700// 333 4/000 60007 90710 91104 555 60005=
07610 24985 /0503 10208 20149 39957 40169 52002 700// 333 4/000 60007 90710 91106 555 60005=
07621 24986 /1803 10171 20151 39755 40177 50001 700// 333 4//// 60007 90710 91105 555 60005=
07622 24/70 /0000 10184 20149 30025 40175 52004 700// 333 4/000 60007 90710 91102 555 60005=
07627 24970 /1503 10171 20142 39703 40183 50003 700// 333 4/000 60007 90710 91105 555 60005=
07628 24970 /2802 10182 20162 39952 40174 50002 700// 333 4//// 69907 90710 91105 555 60005=
07630 24986 /3004 10236 20137 39995 40168 50002 700// 333 4/000 60007 90710 91109 555 60005=
07632 24/70 /2302 10225 20133 39969 40166 52005 700// 333 4/000 60007 90710 91106 555 60005=
07635 24986 /2002 10200 20137 30022 40170 53006 700// 333 4/000 60007 90710 91109 555 60005=
07638 24985 /2001 10232 20134 30146 40165 52009 700// 333 4/000 60007 90710 91105 555 60005=
07641 26/// /2603 10264 20121 30075 40163 51008 333 4//// 60007 90710 91104 555 60005=
07643 24985 /3103 10235 20155 30155 40164 51009 700// 333 4//// 60007 90710 91103 555 60005=
07645 26/// /3504 10227 20135 30089 40161 50005 333 4/000 60007 90710 91105 555 60005=
07646 24986 /3205 10222 20138 30038 40160 50005 700// 333 4//// 60007 90710 91108 555 60005=
07647 24986 /2801 10247 20172 30128 40156 50005 700// 333 4//// 60007 90710 91106 555 60005=
07648 24986 /2202 10227 20165 30090 40158 51006 700// 333 4//// 60007 90710 91103 555 60005=
07650 24986 /1305 10247 20139 30122 40159 51008 700// 333 4/000 60007 90710 91106 555 60005=
07661 26/// /2806 1//// 2//// 30018 4//// 50008 333 4//// 6///7 90710 91108 555 6///5=
07666 26/// /2907 10259 20131 30115 40161 52009 333 4//// 60007 90710 91109 555 60005=
07667 24985 /0303 10218 20182 30158 40163 51009 700// 333 4//// 60007 90710 91104 555 60005=
07675 24/70 /0000 10226 20173 30067 40162 51012 700// 333 4/000 60007 90710 91103 555 60005=
07684 24986 /3302 10227 20153 30155 40160 50007 700// 333 4//// 60007 90710 91106 555 60005=
07690 22980 03307 10251 20154 30127 40157 51005 333 60007 90710 91109 555 60005=
07747 24986 /2403 10243 20132 30114 40165 52006 700// 333 4/000 60007 90710 91110 555 60005=
07749 26/// /3007 10255 20134 30066 40165 53006 333 4//// 60007 90710 91110 555 60005=
07753 26/// /1011 10244 20161 39981 40147 51007 333 4//// 60007 90710 91114 555 60005=
07754 24986 /1804 10221 20166 30083 40150 51010 700// 333 4//// 60007 90710 91109 555 60005=
07761 24886 /0306 10247 20193 30138 40148 51015 700// 333 4/000 60007 90710 91109 555 60005=
07765 24986 /2704 10243 20166 30127 40147 51008 700// 333 4//// 60007 90710 91110 555 60005=
07770 26/// /0605 10223 20174 30012 40146 51008 333 4//// 60007 90710 91109 555 60005=
07775 26/// /3310 10250 20159 30062 40147 51008 333 4//// 60007 90710 91117 555 60005=
07780 24962 /0301 10197 20185 30122 40149 52009 700// 333 4//// 60007 90710 91103 555 60005=
07785 26/// /0804 10250 20150 30026 40156 52008 333 4//// 60007 90710 91106 555 60005=
07790 24986 /2103 10219 20183 30139 40153 51009 700// 333 4/000 60007 90710 91105 555 60005=
08001 22970 03504 10194 20168 30094 40173 53015 80000 333 60007=
08002 26/80 /3305 10202 20166 30048 40169 53015 333 60007=
08008 26/70 /0503 10176 20161 39663 40177 53009 333 60007=
08011 22570 31107 10191 20176 30026 40178 53006 81601 333 60007=
08015 22565 63401 10194 20175 39784 40175 53004 86500 333 60007=
08021 22680 20804 10213 20192 30174 40175 53005 82830 333 60007=
08023 22670 10908 10206 20185 30106 40175 53005 81800 333 60007=
08025 22570 11203 10206 20174 30132 40178 52007 81500 333 60007=
08027 42481 20101 10197 20182 39877 40176 54000 81170=
08042 22975 03407 10200 20172 39744 40165 53013 80000 333 60007=
08044 26/64 /1402 10210 20146 30025 40151 53010 333 60007=
08045 22/80 /3003 10216 20127 39858 40155 53007 333 60007=
08048 26/70 /3301 10282 20168 39975 40141 53018 333 60007=
08053 26/70 /1602 10254 20163 39530 40141 53017 333 60007=
08055 26/// /3304 10190 20089 39135 48528 53009 333 60007=
08075 26/// /0510 10192 20149 39162 42809 53008 333 60007=
08080 22670 12801 10188 20166 39591 40173 52010 81500 333 60007=
08084 22980 01104 10238 20158 39742 40153 53017 80000 333 60007=
08085 22980 03105 10202 20156 39650 40166 52011 80000 333 60007=
08094 26/// /0905 10216 20130 39534 40159 53013 333 60007=
08130 26/70 /2902 10251 20025 39394 40132 53008 333 60007=
08141 22970 03402 10239 20032 39321 40134 52012 80000 333 60007=
08148 26/70 /0503 10205 20078 38970 48544 51016 333 60007=
08160 22675 30603 10251 20116 39853 40146 53010 82203 333 60007=
08171 26/70 /1802 10242 20172 39934 40162 53018 333 60007=
08175 26/80 /0000 10248 20213 30085 40173 52010 333 60007=
08181 22580 32006 10267 20208 30168 40174 51008 83500 333 60007=
08184 22680 12704 10213 20173 30017 40167 52006 81031 333 60007=
08202 26/// /0000 10200 20124 39259 42803 53012 333 60007=
08210 26/70 /0204 10244 20042 38911 48543 51009 333 60007=
08213 26/70 /0803 10229 20062 39041 48539 53012 333 60007=
08215 26/70 /3605 10172 20027 38171 48550 53007 333 60007=
08221 22980 33406 10282 20098 39474 40112 53010 83072 333 60007=
08226 26/70 /1405 10284 20091 39318 40104 51008 333 60007=
08231 26/69 /1406 10235 20175 39114 42819 53021 333 60007=
08232 26/70 /0805 10227 20150 38984 48543 51012 333 60007=
08233 26/70 /1405 10236 20154 39177 42822 53014 333 60007=
08235 26/70 /1603 10217 20187 39166 42823 52020 333 60007=
08238 26/64 /1506 10253 20212 30108 40165 51010 333 60007=
08261 26/70 /2507 10295 20085 39690 40123 53012 333 60007=
08272 26/63 /2701 10300 20078 39544 40110 53010 333 60007=
08284 22565 71106 10263 20211 30094 40165 51006 875// 333 60007=
08286 27/70 /2202 10259 20216 30120 40170 51010 710// 333 69907=
08306 22570 31304 10260 20176 30171 40177 52011 82585 333 60007=
08314 22978 03303 10219 20171 30073 40173 51008 80000 333 60007=
08330 26/// /2403 10292 20126 39918 40134 53017 333 60007=
08348 26/70 /2407 10288 20050 39438 40127 53015 333 60007=
08359 26/70 /1404 10263 20222 30070 40164 50002 333 60007=
08360 22480 21105 10261 20220 30127 40163 50000 82810 333 60007=
08373 22970 11405 10255 20165 30154 40175 51009 80001 333 60007=
08391 22980 02207 10228 20170 30125 40161 53016 80000 333 60007=
08410 26/// /2608 10270 20151 30044 40149 53017 333 60007=
08417 26/70 /1707 10265 20146 39506 40147 51019 333 60007=
08419 22875 30000 10261 20149 39515 40147 51017 83460 333 60007=
08430 26/70 /1103 10268 20194 30088 40159 50000 333 60007=
08451 22962 01804 10202 20176 30134 40166 53011 80000 333 60007=
08482 22965 01405 10260 20225 30153 40161 53011 80000 333 60007=
08487 26/// /0405 10278 20225 30131 40155 51008 333 60007=
08495 46966 /2308 10234 20163 30156 40162 53011 333 81/67 555 7/091=



SMUS00 KWBC 152100
AAXX 15214